createdAt,value
2017-12-03T00:01:21.475Z,88.89
2017-12-03T00:03:49.106Z,88.88
2017-12-03T00:06:16.710Z,89.28
2017-12-03T00:08:44.335Z,89.05
2017-12-03T00:11:11.902Z,88.87
2017-12-03T00:13:39.499Z,88.68
2017-12-03T00:16:07.302Z,88.85
2017-12-03T00:18:34.882Z,88.44
2017-12-03T00:21:02.470Z,88.37
2017-12-03T00:23:30.052Z,88.46
2017-12-03T00:25:57.649Z,88.63
2017-12-03T00:28:25.256Z,88.79
2017-12-03T00:30:52.837Z,88.88
2017-12-03T00:33:20.430Z,88.88
2017-12-03T00:35:48.029Z,88.65
2017-12-03T00:38:15.609Z,88.04
2017-12-03T00:40:43.193Z,88.36
2017-12-03T00:43:10.784Z,88.33
2017-12-03T00:45:38.393Z,88.18
2017-12-03T00:48:05.971Z,88.22
2017-12-03T00:50:33.567Z,88.04
2017-12-03T00:53:01.132Z,87.88
2017-12-03T00:55:28.704Z,86.77
2017-12-03T00:57:56.352Z,86.38
2017-12-03T01:00:23.912Z,86.44
2017-12-03T01:02:51.551Z,86.20
2017-12-03T01:05:19.161Z,86.21
2017-12-03T01:07:50.657Z,86.07
2017-12-03T01:10:18.240Z,86.23
2017-12-03T01:12:45.823Z,86.32
2017-12-03T01:15:13.473Z,86.84
2017-12-03T01:17:41.101Z,87.11
2017-12-03T01:20:08.723Z,87.17
2017-12-03T01:22:36.365Z,87.51
2017-12-03T01:25:04.011Z,87.59
2017-12-03T01:27:31.660Z,87.12
2017-12-03T01:29:59.240Z,86.33
2017-12-03T01:32:26.852Z,86.30
2017-12-03T01:34:54.429Z,86.40
2017-12-03T01:37:21.992Z,86.24
2017-12-03T01:39:49.594Z,86.26
2017-12-03T01:42:17.282Z,85.81
2017-12-03T01:44:44.844Z,85.63
2017-12-03T01:47:12.445Z,85.65
2017-12-03T01:49:40.078Z,85.67
2017-12-03T01:52:07.680Z,85.69
2017-12-03T01:54:35.270Z,85.37
2017-12-03T01:57:03.122Z,85.68
2017-12-03T01:59:30.702Z,86.53
2017-12-03T02:01:58.311Z,86.85
2017-12-03T02:04:25.915Z,87.30
2017-12-03T02:06:53.530Z,87.80
2017-12-03T02:09:21.409Z,87.29
2017-12-03T02:11:49.034Z,87.25
2017-12-03T02:14:16.629Z,87.46
2017-12-03T02:16:44.223Z,87.56
2017-12-03T02:19:11.855Z,87.54
2017-12-03T02:21:39.472Z,87.92
2017-12-03T02:24:07.079Z,88.24
2017-12-03T02:26:34.706Z,88.56
2017-12-03T02:29:02.287Z,88.91
2017-12-03T02:31:29.898Z,88.90
2017-12-03T02:33:57.515Z,88.72
2017-12-03T02:36:26.382Z,88.36
2017-12-03T02:38:53.953Z,88.52
2017-12-03T02:41:21.537Z,88.09
2017-12-03T02:43:49.115Z,87.53
2017-12-03T02:46:16.893Z,87.21
2017-12-03T02:48:44.479Z,87.97
2017-12-03T02:51:12.046Z,87.35
2017-12-03T02:53:39.663Z,87.18
2017-12-03T02:56:07.655Z,86.94
2017-12-03T02:58:35.600Z,86.70
2017-12-03T03:01:03.242Z,86.27
2017-12-03T03:03:30.816Z,86.10
2017-12-03T03:05:58.414Z,86.57
2017-12-03T03:08:26.062Z,86.69
2017-12-03T03:10:53.690Z,87.06
2017-12-03T03:13:21.274Z,87.41
2017-12-03T03:15:55.705Z,87.54
2017-12-03T03:18:23.280Z,87.05
2017-12-03T03:20:50.866Z,86.04
2017-12-03T03:23:18.455Z,86.06
2017-12-03T03:25:46.111Z,86.27
2017-12-03T03:28:13.765Z,86.78
2017-12-03T03:30:41.367Z,87.11
2017-12-03T03:33:11.426Z,87.53
2017-12-03T03:35:39.370Z,87.02
2017-12-03T03:38:06.944Z,86.81
2017-12-03T03:40:34.573Z,87.25
2017-12-03T03:43:02.155Z,87.29
2017-12-03T03:45:29.755Z,87.10
2017-12-03T03:47:57.358Z,86.83
2017-12-03T03:50:25.031Z,86.79
2017-12-03T03:52:52.824Z,86.44
2017-12-03T03:55:20.442Z,86.56
2017-12-03T03:57:48.025Z,86.42
2017-12-03T04:00:15.678Z,86.38
2017-12-03T04:02:43.343Z,86.07
2017-12-03T04:05:11.029Z,86.12
2017-12-03T04:07:38.631Z,85.76
2017-12-03T04:10:06.229Z,86.01
2017-12-03T04:12:33.800Z,86.43
2017-12-03T04:15:01.379Z,86.09
2017-12-03T04:17:28.953Z,86.05
2017-12-03T04:19:56.505Z,85.95
2017-12-03T04:22:24.138Z,86.33
2017-12-03T04:24:51.742Z,86.84
2017-12-03T04:27:19.351Z,87.55
2017-12-03T04:29:46.922Z,87.97
2017-12-03T04:32:14.587Z,88.08
2017-12-03T04:34:42.215Z,88.12
2017-12-03T04:37:10.111Z,88.05
2017-12-03T04:39:37.683Z,87.86
2017-12-03T04:42:05.343Z,88.21
2017-12-03T04:44:32.948Z,88.38
2017-12-03T04:47:00.590Z,88.71
2017-12-03T04:49:28.187Z,89.04
2017-12-03T04:51:55.770Z,89.28
2017-12-03T04:54:23.354Z,88.77
2017-12-03T04:56:50.991Z,88.87
2017-12-03T04:59:18.695Z,88.83
2017-12-03T05:01:46.438Z,88.78
2017-12-03T05:04:14.032Z,88.72
2017-12-03T05:06:41.641Z,88.93
2017-12-03T05:09:09.469Z,89.11
2017-12-03T05:11:37.080Z,89.20
2017-12-03T05:14:04.679Z,89.15
2017-12-03T05:16:32.323Z,89.08
2017-12-03T05:18:59.888Z,89.40
2017-12-03T05:21:27.690Z,89.45
2017-12-03T05:23:55.280Z,89.74
2017-12-03T05:26:22.867Z,90.10
2017-12-03T05:28:50.497Z,90.20
2017-12-03T05:31:18.071Z,90.42
2017-12-03T05:33:45.656Z,90.52
2017-12-03T05:36:13.246Z,90.48
2017-12-03T05:38:40.828Z,90.52
2017-12-03T05:41:08.461Z,90.52
2017-12-03T05:43:36.083Z,90.36
2017-12-03T05:48:53.745Z,89.98
2017-12-03T05:51:21.328Z,89.96
2017-12-03T05:53:48.917Z,89.77
2017-12-03T05:56:16.535Z,89.82
2017-12-03T05:58:44.094Z,89.95
2017-12-03T06:01:11.670Z,89.89
2017-12-03T06:03:39.313Z,89.29
2017-12-03T06:06:06.957Z,89.08
2017-12-03T06:08:34.637Z,88.72
2017-12-03T06:11:02.321Z,88.68
2017-12-03T06:13:29.921Z,88.25
2017-12-03T06:18:29.180Z,87.64
2017-12-03T06:20:56.730Z,87.68
2017-12-03T06:23:24.514Z,87.60
2017-12-03T06:25:52.085Z,87.54
2017-12-03T06:28:19.702Z,87.52
2017-12-03T06:30:47.358Z,87.02
2017-12-03T06:33:14.937Z,86.93
2017-12-03T06:35:42.510Z,87.08
2017-12-03T06:38:10.126Z,87.42
2017-12-03T06:40:37.966Z,87.56
2017-12-03T06:43:05.576Z,87.57
2017-12-03T06:45:33.179Z,87.75
2017-12-03T06:48:00.751Z,87.45
2017-12-03T06:50:28.832Z,87.29
2017-12-03T06:52:56.434Z,87.25
2017-12-03T06:55:24.014Z,86.92
2017-12-03T06:57:51.575Z,87.10
2017-12-03T07:03:09.555Z,86.48
2017-12-03T07:05:37.122Z,86.49
2017-12-03T07:08:04.703Z,86.75
2017-12-03T07:10:32.344Z,86.74
2017-12-03T07:12:59.942Z,86.77
2017-12-03T07:15:27.519Z,87.04
2017-12-03T07:17:55.185Z,87.30
2017-12-03T07:20:22.892Z,87.50
2017-12-03T07:22:50.577Z,87.76
2017-12-03T07:25:18.156Z,87.74
2017-12-03T07:27:46.931Z,87.63
2017-12-03T07:30:14.547Z,87.40
2017-12-03T07:32:42.182Z,87.10
2017-12-03T07:35:09.851Z,86.66
2017-12-03T07:37:37.491Z,86.06
2017-12-03T07:40:05.068Z,85.03
2017-12-03T07:42:32.650Z,84.79
2017-12-03T07:45:00.263Z,84.30
2017-12-03T07:47:28.846Z,84.41
2017-12-03T07:49:56.464Z,83.66
2017-12-03T07:52:24.051Z,83.38
2017-12-03T07:54:51.739Z,82.24
2017-12-03T07:57:19.326Z,81.84
2017-12-03T07:59:46.907Z,80.43
2017-12-03T08:02:14.487Z,80.71
2017-12-03T08:04:42.105Z,79.78
2017-12-03T08:07:09.729Z,79.69
2017-12-03T08:09:37.330Z,78.56
2017-12-03T08:12:04.926Z,78.02
2017-12-03T08:14:32.494Z,77.88
2017-12-03T08:17:00.065Z,77.93
2017-12-03T08:19:28.791Z,78.01
2017-12-03T08:21:56.420Z,77.77
2017-12-03T08:24:24.016Z,76.53
2017-12-03T08:26:51.693Z,76.77
2017-12-03T08:29:19.327Z,76.27
2017-12-03T08:31:46.935Z,75.50
2017-12-03T08:34:14.672Z,74.71
2017-12-03T08:36:42.282Z,76.12
2017-12-03T08:39:11.054Z,75.76
2017-12-03T08:41:38.647Z,75.99
2017-12-03T08:44:06.252Z,76.30
2017-12-03T08:46:33.840Z,76.49
2017-12-03T08:49:01.559Z,75.82
2017-12-03T08:51:29.199Z,77.04
2017-12-03T08:53:56.859Z,77.36
2017-12-03T08:56:25.555Z,77.39
2017-12-03T08:58:53.148Z,76.89
2017-12-03T09:01:20.793Z,75.69
2017-12-03T09:03:48.642Z,76.21
2017-12-03T09:06:16.503Z,75.28
2017-12-03T09:08:44.132Z,75.54
2017-12-03T09:11:11.903Z,74.47
2017-12-03T09:13:39.496Z,74.39
2017-12-03T09:16:07.153Z,72.15
2017-12-03T09:18:34.788Z,72.62
2017-12-03T09:21:02.454Z,72.84
2017-12-03T09:23:30.067Z,71.98
2017-12-03T09:25:57.721Z,69.89
2017-12-03T09:28:25.350Z,68.91
2017-12-03T09:30:52.924Z,67.87
2017-12-03T09:33:20.777Z,66.81
2017-12-03T09:35:48.414Z,65.80
2017-12-03T09:38:15.983Z,66.80
2017-12-03T09:40:43.652Z,65.63
2017-12-03T09:43:11.723Z,67.85
2017-12-03T09:45:39.352Z,68.04
2017-12-03T09:48:06.947Z,69.54
2017-12-03T09:50:34.801Z,71.26
2017-12-03T09:53:02.357Z,71.93
2017-12-03T09:55:30.005Z,71.14
2017-12-03T09:57:57.653Z,72.94
2017-12-03T10:00:25.264Z,73.26
2017-12-03T10:02:52.876Z,72.86
2017-12-03T10:05:20.486Z,73.48
2017-12-03T10:07:48.072Z,74.30
2017-12-03T10:10:15.634Z,74.03
2017-12-03T10:12:43.224Z,75.04
2017-12-03T10:15:11.086Z,75.28
2017-12-03T10:17:38.707Z,75.62
2017-12-03T10:20:06.289Z,76.69
2017-12-03T10:22:33.880Z,76.34
2017-12-03T10:25:01.500Z,77.75
2017-12-03T10:27:29.083Z,76.86
2017-12-03T10:29:56.743Z,76.15
2017-12-03T10:32:24.372Z,75.46
2017-12-03T10:34:52.026Z,74.98
2017-12-03T10:37:19.631Z,76.96
2017-12-03T10:39:47.473Z,76.19
2017-12-03T10:42:15.110Z,74.99
2017-12-03T10:44:42.702Z,75.43
2017-12-03T10:47:10.636Z,75.74
2017-12-03T10:49:38.304Z,74.40
2017-12-03T10:52:06.005Z,74.23
2017-12-03T10:54:33.621Z,75.45
2017-12-03T10:57:01.204Z,73.42
2017-12-03T10:59:28.814Z,74.22
2017-12-03T11:01:56.915Z,73.06
2017-12-03T11:04:24.601Z,73.69
2017-12-03T11:06:52.207Z,72.37
2017-12-03T11:09:19.801Z,70.94
2017-12-03T11:11:47.416Z,71.34
2017-12-03T11:14:14.986Z,72.37
2017-12-03T11:16:42.614Z,70.97
2017-12-03T11:19:10.373Z,71.61
2017-12-03T11:21:38.009Z,72.45
2017-12-03T11:24:05.649Z,71.98
2017-12-03T11:26:33.196Z,72.66
2017-12-03T11:29:00.755Z,72.71
2017-12-03T11:31:28.537Z,72.16
2017-12-03T11:33:56.381Z,72.96
2017-12-03T11:36:23.979Z,72.04
2017-12-03T11:38:51.587Z,73.56
2017-12-03T11:41:19.182Z,72.75
2017-12-03T11:43:46.930Z,73.77
2017-12-03T11:46:14.507Z,72.27
2017-12-03T11:48:42.105Z,71.49
2017-12-03T11:51:09.760Z,72.11
2017-12-03T11:53:37.357Z,72.14
2017-12-03T11:56:06.366Z,72.03
2017-12-03T11:58:33.932Z,71.36
2017-12-03T12:01:01.522Z,72.32
2017-12-03T12:03:29.092Z,73.48
2017-12-03T12:05:56.706Z,73.93
2017-12-03T12:08:40.235Z,75.81
2017-12-03T12:11:08.308Z,75.81
2017-12-03T12:13:35.895Z,76.20
2017-12-03T12:16:04.067Z,76.61
2017-12-03T12:18:31.653Z,77.37
2017-12-03T12:20:59.287Z,76.09
2017-12-03T12:23:26.927Z,75.82
2017-12-03T12:25:54.516Z,75.72
2017-12-03T12:28:22.236Z,75.42
2017-12-03T12:30:49.908Z,75.77
2017-12-03T12:33:17.496Z,76.59
2017-12-03T12:35:45.129Z,73.99
2017-12-03T12:38:12.712Z,73.90
2017-12-03T12:40:40.331Z,74.12
2017-12-03T12:43:08.027Z,73.22
2017-12-03T12:45:35.598Z,73.72
2017-12-03T12:48:03.202Z,72.18
2017-12-03T12:50:31.110Z,69.98
2017-12-03T12:52:58.700Z,68.97
2017-12-03T12:55:26.298Z,69.62
2017-12-03T12:57:53.893Z,70.34
2017-12-03T13:00:21.526Z,69.79
2017-12-03T13:02:49.182Z,69.71
2017-12-03T13:05:16.794Z,70.79
2017-12-03T13:07:44.388Z,70.38
2017-12-03T13:10:11.943Z,71.23
2017-12-03T13:12:39.539Z,69.92
2017-12-03T13:15:07.099Z,70.27
2017-12-03T13:17:34.692Z,68.72
2017-12-03T13:20:02.252Z,68.90
2017-12-03T13:22:29.816Z,68.34
2017-12-03T13:24:57.411Z,66.49
2017-12-03T13:27:24.976Z,66.94
2017-12-03T13:29:52.619Z,68.06
2017-12-03T13:32:20.194Z,66.99
2017-12-03T13:34:47.837Z,68.68
2017-12-03T13:37:15.449Z,69.82
2017-12-03T13:39:43.039Z,68.94
2017-12-03T13:42:10.584Z,70.35
2017-12-03T13:44:38.198Z,69.13
2017-12-03T13:47:05.974Z,69.31
2017-12-03T13:49:33.531Z,67.89
2017-12-03T13:52:01.130Z,66.44
2017-12-03T13:54:28.745Z,64.48
2017-12-03T13:56:56.635Z,64.40
2017-12-03T14:01:59.448Z,63.30
2017-12-03T14:04:27.094Z,64.15
2017-12-03T14:06:54.645Z,64.30
2017-12-03T14:09:22.229Z,64.65
2017-12-03T14:11:49.761Z,66.24
2017-12-03T14:14:17.425Z,65.37
2017-12-03T14:16:45.396Z,66.28
2017-12-03T14:19:13.139Z,65.19
2017-12-03T14:21:40.705Z,65.97
2017-12-03T14:24:08.332Z,66.96
2017-12-03T14:29:02.866Z,65.30
2017-12-03T14:31:30.442Z,67.05
2017-12-03T14:33:58.035Z,66.90
2017-12-03T14:36:25.619Z,67.98
2017-12-03T14:38:53.203Z,65.45
2017-12-03T14:41:20.752Z,65.63
2017-12-03T14:43:48.334Z,67.40
2017-12-03T14:46:16.018Z,65.13
2017-12-03T14:48:43.572Z,67.44
2017-12-03T14:51:11.399Z,68.24
2017-12-03T14:53:38.990Z,67.66
2017-12-03T14:56:06.537Z,68.67
2017-12-03T14:58:34.081Z,67.49
2017-12-03T15:01:01.730Z,66.95
2017-12-03T15:03:29.741Z,68.12
2017-12-03T15:05:57.336Z,69.34
2017-12-03T15:08:24.913Z,68.69
2017-12-03T15:10:52.503Z,69.10
2017-12-03T15:13:20.076Z,71.01
2017-12-03T15:15:49.082Z,71.74
2017-12-03T15:18:16.663Z,69.66
2017-12-03T15:20:44.230Z,71.30
2017-12-03T15:23:12.074Z,71.39
2017-12-03T15:25:39.654Z,70.10
2017-12-03T15:28:07.229Z,72.07
2017-12-03T15:30:34.827Z,72.71
2017-12-03T15:33:02.377Z,72.96
2017-12-03T15:35:29.965Z,73.27
2017-12-03T15:37:58.499Z,73.00
2017-12-03T15:40:26.141Z,74.03
2017-12-03T15:42:53.784Z,73.13
2017-12-03T15:45:21.389Z,73.47
2017-12-03T15:47:48.996Z,74.34
2017-12-03T15:50:16.575Z,74.05
2017-12-03T15:52:44.265Z,72.49
2017-12-03T15:55:11.983Z,73.03
2017-12-03T15:57:39.562Z,72.31
2017-12-03T16:00:07.201Z,73.27
2017-12-03T16:02:34.824Z,73.38
2017-12-03T16:05:02.459Z,73.11
2017-12-03T16:07:30.091Z,73.97
2017-12-03T16:09:58.263Z,73.86
2017-12-03T16:12:25.837Z,74.09
2017-12-03T16:14:53.503Z,72.73
2017-12-03T16:17:21.108Z,72.88
2017-12-03T16:19:48.908Z,73.40
2017-12-03T16:22:17.251Z,73.87
2017-12-03T16:24:44.862Z,74.17
2017-12-03T16:27:12.502Z,72.98
2017-12-03T16:29:40.132Z,74.63
2017-12-03T16:32:07.753Z,74.80
2017-12-03T16:34:35.347Z,73.85
2017-12-03T16:37:03.015Z,74.86
2017-12-03T16:39:30.617Z,74.44
2017-12-03T16:41:58.220Z,74.22
2017-12-03T16:44:25.804Z,74.70
2017-12-03T16:46:53.456Z,74.54
2017-12-03T16:49:21.031Z,74.10
2017-12-03T16:51:48.646Z,73.52
2017-12-03T16:54:16.243Z,74.01
2017-12-03T16:56:43.867Z,73.67
2017-12-03T16:59:11.452Z,73.88
2017-12-03T17:01:39.067Z,73.84
2017-12-03T17:04:06.688Z,74.49
2017-12-03T17:06:34.312Z,75.19
2017-12-03T17:09:01.943Z,74.78
2017-12-03T17:11:29.598Z,74.17
2017-12-03T17:13:57.278Z,73.08
2017-12-03T17:16:24.960Z,72.74
2017-12-03T17:18:52.686Z,73.65
2017-12-03T17:21:20.261Z,73.61
2017-12-03T17:23:47.844Z,72.92
2017-12-03T17:26:15.554Z,74.12
2017-12-03T17:28:43.174Z,73.67
2017-12-03T17:31:10.793Z,73.79
2017-12-03T17:33:38.493Z,73.94
2017-12-03T17:36:07.638Z,73.25
2017-12-03T17:38:35.310Z,74.43
2017-12-03T17:41:02.993Z,74.60
2017-12-03T17:43:30.579Z,73.91
2017-12-03T17:45:58.175Z,74.47
2017-12-03T17:48:25.815Z,73.73
2017-12-03T17:50:53.468Z,73.92
2017-12-03T17:53:21.166Z,73.14
2017-12-03T17:55:48.741Z,73.42
2017-12-03T17:58:16.370Z,72.57
2017-12-03T18:00:44.133Z,73.05
2017-12-03T18:03:11.756Z,73.52
2017-12-03T18:05:39.344Z,73.58
2017-12-03T18:08:06.913Z,73.46
2017-12-03T18:10:34.567Z,74.03
2017-12-03T18:13:02.146Z,74.41
2017-12-03T18:15:29.802Z,73.43
2017-12-03T18:17:57.479Z,74.09
2017-12-03T18:20:25.127Z,74.02
2017-12-03T18:22:52.695Z,74.10
2017-12-03T18:25:20.292Z,74.51
2017-12-03T18:27:47.952Z,74.63
2017-12-03T18:30:15.619Z,75.03
2017-12-03T18:32:43.279Z,74.52
2017-12-03T18:35:10.980Z,74.29
2017-12-03T18:37:38.696Z,74.66
2017-12-03T18:40:06.358Z,75.05
2017-12-03T18:42:34.015Z,74.75
2017-12-03T18:45:01.609Z,74.50
2017-12-03T18:47:29.210Z,73.62
2017-12-03T18:49:56.858Z,75.26
2017-12-03T18:52:24.684Z,74.41
2017-12-03T18:54:52.271Z,74.97
2017-12-03T18:57:19.869Z,75.21
2017-12-03T18:59:47.576Z,75.37
2017-12-03T19:02:15.146Z,73.00
2017-12-03T19:04:42.786Z,73.03
2017-12-03T19:07:10.561Z,73.13
2017-12-03T19:09:38.183Z,73.84
2017-12-03T19:12:05.768Z,73.48
2017-12-03T19:14:33.434Z,72.92
2017-12-03T19:17:01.051Z,73.01
2017-12-03T19:19:28.637Z,73.17
2017-12-03T19:21:56.244Z,72.27
2017-12-03T19:24:23.815Z,72.03
2017-12-03T19:26:51.397Z,72.57
2017-12-03T19:29:18.999Z,72.60
2017-12-03T19:31:46.573Z,72.93
2017-12-03T19:34:14.142Z,73.21
2017-12-03T19:39:31.866Z,71.86
2017-12-03T19:41:59.494Z,71.44
2017-12-03T19:44:27.087Z,72.03
2017-12-03T19:46:54.667Z,71.54
2017-12-03T19:49:26.191Z,71.75
2017-12-03T19:51:53.780Z,71.64
2017-12-03T19:54:21.353Z,71.67
2017-12-03T19:56:48.925Z,72.60
2017-12-03T19:59:16.583Z,72.34
2017-12-03T20:04:34.334Z,72.59
2017-12-03T20:07:01.927Z,72.91
2017-12-03T20:09:29.501Z,73.06
2017-12-03T20:11:57.116Z,72.71
2017-12-03T20:14:24.700Z,74.01
2017-12-03T20:16:52.491Z,73.47
2017-12-03T20:19:20.153Z,73.01
2017-12-03T20:21:47.732Z,73.73
2017-12-03T20:24:15.340Z,73.06
2017-12-03T20:26:42.930Z,73.16
2017-12-03T20:32:00.713Z,73.24
2017-12-03T20:34:28.280Z,73.99
2017-12-03T20:36:55.835Z,73.70
2017-12-03T20:39:23.453Z,73.71
2017-12-03T20:41:51.055Z,73.57
2017-12-03T20:44:18.682Z,73.89
2017-12-03T20:46:46.337Z,72.81
2017-12-03T20:49:13.956Z,73.43
2017-12-03T20:51:41.549Z,74.09
2017-12-03T20:54:09.145Z,73.87
2017-12-03T20:56:36.754Z,73.86
2017-12-03T20:59:04.351Z,74.43
2017-12-03T21:01:31.977Z,74.39
2017-12-03T21:03:59.579Z,74.58
2017-12-03T21:06:27.169Z,74.58
2017-12-03T21:08:54.826Z,74.75
2017-12-03T21:11:22.398Z,75.24
2017-12-03T21:13:49.964Z,75.31
2017-12-03T21:16:17.585Z,74.97
2017-12-03T21:18:45.178Z,75.32
2017-12-03T21:21:12.763Z,75.42
2017-12-03T21:23:40.382Z,76.04
2017-12-03T21:26:07.971Z,76.21
2017-12-03T21:28:35.555Z,75.40
2017-12-03T21:31:03.206Z,75.91
2017-12-03T21:33:30.832Z,75.69
2017-12-03T21:35:58.480Z,76.75
2017-12-03T21:38:26.055Z,77.15
2017-12-03T21:40:53.678Z,77.22
2017-12-03T21:43:21.257Z,77.51
2017-12-03T21:45:48.879Z,77.50
2017-12-03T21:48:16.494Z,77.44
2017-12-03T21:50:44.071Z,77.63
2017-12-03T21:53:11.692Z,77.82
2017-12-03T21:55:39.290Z,77.27
2017-12-03T21:58:06.878Z,77.48
2017-12-03T22:00:34.512Z,78.27
2017-12-03T22:03:02.149Z,78.00
2017-12-03T22:05:29.829Z,77.94
2017-12-03T22:07:58.237Z,78.43
2017-12-03T22:10:25.961Z,79.16
2017-12-03T22:12:53.846Z,78.37
2017-12-03T22:15:21.440Z,78.07
2017-12-03T22:17:50.089Z,78.08
2017-12-03T22:20:17.687Z,78.47
2017-12-03T22:22:45.280Z,78.83
2017-12-03T22:25:13.089Z,78.28
2017-12-03T22:27:40.842Z,78.42
2017-12-03T22:30:08.500Z,78.85
2017-12-03T22:32:36.141Z,79.14
2017-12-03T22:35:03.724Z,78.47
2017-12-03T22:37:31.330Z,79.00
2017-12-03T22:39:58.942Z,78.69
2017-12-03T22:42:26.573Z,78.68
2017-12-03T22:44:54.270Z,79.15
2017-12-03T22:47:21.939Z,78.63
2017-12-03T22:49:49.686Z,78.76
2017-12-03T22:52:17.443Z,79.00
2017-12-03T22:54:45.038Z,78.99
2017-12-03T22:57:13.068Z,79.52
2017-12-03T22:59:40.707Z,79.09
2017-12-03T23:02:08.313Z,79.29
2017-12-03T23:04:35.884Z,78.83
2017-12-03T23:07:05.355Z,78.57
2017-12-03T23:09:32.968Z,78.75
2017-12-03T23:12:00.553Z,78.77
2017-12-03T23:14:28.159Z,78.69
2017-12-03T23:16:55.791Z,78.85
2017-12-03T23:19:23.333Z,79.31
2017-12-03T23:21:50.922Z,79.18
2017-12-03T23:24:18.530Z,79.15
2017-12-03T23:26:47.784Z,79.25
2017-12-03T23:29:16.848Z,79.60
2017-12-03T23:31:44.792Z,79.83
2017-12-03T23:34:12.481Z,79.68
2017-12-03T23:36:40.073Z,80.04
2017-12-03T23:39:07.744Z,79.73
2017-12-03T23:41:35.339Z,80.03
2017-12-03T23:44:05.281Z,80.14
2017-12-03T23:46:32.895Z,80.28
2017-12-03T23:49:00.491Z,80.28
2017-12-03T23:51:28.053Z,80.50
2017-12-03T23:53:55.633Z,80.80
2017-12-03T23:56:23.256Z,80.54
2017-12-03T23:58:50.847Z,80.78
